createdAt,value
2017-09-15T00:01:44.750Z,12.27
2017-09-15T00:04:15.431Z,7.87
2017-09-15T00:06:47.183Z,7.40
2017-09-15T00:09:18.021Z,9.23
2017-09-15T00:11:49.081Z,13.30
2017-09-15T00:14:19.672Z,12.27
2017-09-15T00:16:56.366Z,13.10
2017-09-15T00:19:27.708Z,7.43
2017-09-15T00:21:58.095Z,16.27
2017-09-15T00:24:33.109Z,13.10
2017-09-15T00:27:05.242Z,13.30
2017-09-15T00:29:38.088Z,9.80
2017-09-15T00:32:12.015Z,14.57
2017-09-15T00:34:46.950Z,14.10
2017-09-15T00:37:18.845Z,24.60
2017-09-15T00:39:58.040Z,12.77
2017-09-15T00:42:33.575Z,19.20
2017-09-15T00:45:12.151Z,14.83
2017-09-15T00:47:45.801Z,12.00
2017-09-15T00:50:17.880Z,15.23
2017-09-15T00:52:48.819Z,7.97
2017-09-15T00:55:19.488Z,17.03
2017-09-15T00:57:50.979Z,14.50
2017-09-15T01:00:22.353Z,14.10
2017-09-15T01:02:52.783Z,11.77
2017-09-15T01:05:27.664Z,9.70
2017-09-15T01:08:05.183Z,13.70
2017-09-15T01:13:18.413Z,14.03
2017-09-15T01:15:49.783Z,15.30
2017-09-15T01:18:20.408Z,8.57
2017-09-15T01:24:02.553Z,17.33
2017-09-15T01:26:33.574Z,17.33
2017-09-15T01:29:04.798Z,19.07
2017-09-15T01:31:35.721Z,15.13
2017-09-15T01:34:13.707Z,14.10
2017-09-15T01:36:47.616Z,13.57
2017-09-15T01:39:26.779Z,13.27
2017-09-15T01:41:57.791Z,14.50
2017-09-15T01:44:31.812Z,16.80
2017-09-15T01:47:05.562Z,17.23
2017-09-15T01:49:40.726Z,22.00
2017-09-15T01:52:12.946Z,14.90
2017-09-15T01:54:44.291Z,16.13
2017-09-15T01:57:15.045Z,19.70
2017-09-15T01:59:45.558Z,19.30
2017-09-15T02:02:18.887Z,17.70
2017-09-15T02:04:50.507Z,17.17
2017-09-15T02:07:21.096Z,18.00
2017-09-15T02:09:51.906Z,21.80
2017-09-15T02:12:23.003Z,20.13
2017-09-15T02:14:54.422Z,16.80
2017-09-15T02:17:25.637Z,15.97
2017-09-15T02:19:57.820Z,22.07
2017-09-15T02:22:30.403Z,19.20
2017-09-15T02:25:01.957Z,21.60
2017-09-15T02:27:39.042Z,21.30
2017-09-15T02:30:10.377Z,23.43
2017-09-15T02:32:41.452Z,21.63
2017-09-15T02:35:12.179Z,23.23
2017-09-15T02:37:42.766Z,18.00
2017-09-15T02:40:15.287Z,18.47
2017-09-15T02:42:47.703Z,23.03
2017-09-15T02:48:18.712Z,21.93
2017-09-15T02:50:52.210Z,28.83
2017-09-15T02:53:24.929Z,22.60
2017-09-15T02:55:56.903Z,24.23
2017-09-15T02:58:30.681Z,30.23
2017-09-15T03:01:02.471Z,33.47
2017-09-15T03:03:33.175Z,29.07
2017-09-15T03:06:03.624Z,19.17
2017-09-15T03:08:34.700Z,23.00
2017-09-15T03:11:14.612Z,37.83
2017-09-15T03:13:47.143Z,24.93
2017-09-15T03:16:17.580Z,32.33
2017-09-15T03:18:50.676Z,21.47
2017-09-15T03:21:22.022Z,19.90
2017-09-15T03:23:58.032Z,20.50
2017-09-15T03:26:31.325Z,23.57
2017-09-15T03:29:13.245Z,27.50
2017-09-15T03:32:32.956Z,21.37
2017-09-15T03:35:14.630Z,22.53
2017-09-15T03:37:46.380Z,26.13
2017-09-15T03:40:18.265Z,25.73
2017-09-15T03:42:49.787Z,25.83
2017-09-15T03:45:20.321Z,37.03
2017-09-15T03:47:51.190Z,29.47
2017-09-15T03:52:04.641Z,33.20
2017-09-15T04:00:02.429Z,29.23
2017-09-15T04:05:54.489Z,26.17
2017-09-15T04:08:29.785Z,39.47
2017-09-15T04:17:49.852Z,31.00
2017-09-15T04:21:21.468Z,36.87
2017-09-15T04:24:29.983Z,31.70
2017-09-15T04:27:34.752Z,30.50
2017-09-15T04:30:09.766Z,33.30
2017-09-15T04:32:42.974Z,40.20
2017-09-15T04:37:58.630Z,33.70
2017-09-15T04:40:29.888Z,30.37
2017-09-15T04:43:01.666Z,24.60
2017-09-15T04:45:32.312Z,34.87
2017-09-15T04:48:05.598Z,29.77
2017-09-15T04:50:36.271Z,30.47
2017-09-15T04:53:07.564Z,28.50
2017-09-15T04:58:17.141Z,31.63
2017-09-15T05:00:47.887Z,34.30
2017-09-15T05:03:21.560Z,40.30
2017-09-15T05:05:54.978Z,33.03
2017-09-15T05:08:25.852Z,46.23
2017-09-15T05:10:56.906Z,39.00
2017-09-15T05:13:28.311Z,28.97
2017-09-15T05:16:00.031Z,34.90
2017-09-15T05:18:31.853Z,41.57
2017-09-15T05:21:18.725Z,36.10
2017-09-15T05:23:49.735Z,36.47
2017-09-15T05:26:30.186Z,46.07
2017-09-15T05:29:00.714Z,38.63
2017-09-15T05:31:31.126Z,32.50
2017-09-15T05:34:03.739Z,41.73
2017-09-15T05:36:34.292Z,39.10
2017-09-15T05:39:05.153Z,38.60
2017-09-15T05:41:35.989Z,34.30
2017-09-15T05:44:06.653Z,38.50
2017-09-15T05:46:37.075Z,42.13
2017-09-15T05:49:09.693Z,36.87
2017-09-15T05:51:40.376Z,36.07
2017-09-15T05:54:12.053Z,40.10
2017-09-15T05:56:43.527Z,36.57
2017-09-15T05:59:14.686Z,40.23
2017-09-15T06:01:45.186Z,40.60
2017-09-15T06:04:16.389Z,37.43
2017-09-15T06:06:47.435Z,34.77
2017-09-15T06:09:18.032Z,44.27
2017-09-15T06:11:49.367Z,40.37
2017-09-15T06:14:21.975Z,49.40
2017-09-15T06:16:53.578Z,39.33
2017-09-15T06:19:25.384Z,44.23
2017-09-15T06:21:57.822Z,48.43
2017-09-15T06:24:28.866Z,44.53
2017-09-15T06:27:00.768Z,43.83
2017-09-15T06:29:32.773Z,41.67
2017-09-15T06:32:04.908Z,45.53
2017-09-15T06:34:35.919Z,46.23
2017-09-15T06:37:07.478Z,44.50
2017-09-15T06:39:38.101Z,36.90
2017-09-15T06:42:10.892Z,42.10
2017-09-15T06:44:42.403Z,40.53
2017-09-15T06:47:14.622Z,36.03
2017-09-15T06:49:45.600Z,53.37
2017-09-15T06:52:17.508Z,35.30
2017-09-15T06:54:48.915Z,32.50
2017-09-15T06:57:20.238Z,33.33
2017-09-15T06:59:51.514Z,44.53
2017-09-15T07:02:22.406Z,42.10
2017-09-15T07:04:52.849Z,37.63
2017-09-15T07:07:23.438Z,36.17
2017-09-15T07:09:54.246Z,38.17
2017-09-15T07:12:26.136Z,36.77
2017-09-15T07:14:56.724Z,42.80
2017-09-15T07:17:28.037Z,38.70
2017-09-15T07:19:58.636Z,43.43
2017-09-15T07:22:29.054Z,35.83
2017-09-15T07:25:00.301Z,28.27
2017-09-15T07:27:34.104Z,37.17
2017-09-15T07:30:06.042Z,34.37
2017-09-15T07:32:37.355Z,32.40
2017-09-15T07:35:08.235Z,39.67
2017-09-15T07:37:39.494Z,36.17
2017-09-15T07:40:11.434Z,33.10
2017-09-15T07:42:43.267Z,34.03
2017-09-15T07:45:13.927Z,33.60
2017-09-15T07:47:44.637Z,39.23
2017-09-15T07:50:15.396Z,26.37
2017-09-15T07:52:47.918Z,31.77
2017-09-15T07:55:19.260Z,30.40
2017-09-15T07:57:50.397Z,27.43
2017-09-15T08:00:20.837Z,28.57
2017-09-15T08:02:51.438Z,30.30
2017-09-15T08:05:21.864Z,34.20
2017-09-15T08:07:52.122Z,34.50
2017-09-15T08:10:22.503Z,28.47
2017-09-15T08:12:53.412Z,33.37
2017-09-15T08:15:24.183Z,36.57
2017-09-15T08:17:54.562Z,34.70
2017-09-15T08:20:24.923Z,39.60
2017-09-15T08:22:55.501Z,39.67
2017-09-15T08:25:26.065Z,42.40
2017-09-15T08:27:58.938Z,42.57
2017-09-15T08:30:30.015Z,40.97
2017-09-15T08:33:01.589Z,44.63
2017-09-15T08:35:31.823Z,43.27
2017-09-15T08:38:02.352Z,46.40
2017-09-15T08:40:32.938Z,42.73
2017-09-15T08:43:03.295Z,48.50
2017-09-15T08:45:33.672Z,39.57
2017-09-15T08:48:04.047Z,45.30
2017-09-15T08:50:34.586Z,40.00
2017-09-15T08:53:04.891Z,49.33
2017-09-15T08:55:36.645Z,43.23
2017-09-15T08:58:07.058Z,54.33
2017-09-15T09:00:37.439Z,41.83
2017-09-15T09:03:08.610Z,43.40
2017-09-15T09:05:39.039Z,41.00
2017-09-15T09:08:09.368Z,39.90
2017-09-15T09:10:39.767Z,40.77
2017-09-15T09:13:10.917Z,40.93
2017-09-15T09:15:41.158Z,38.07
2017-09-15T09:18:12.531Z,36.80
2017-09-15T09:20:42.839Z,33.60
2017-09-15T09:23:13.244Z,30.17
2017-09-15T09:25:43.690Z,35.53
2017-09-15T09:28:15.011Z,34.63
2017-09-15T09:30:45.426Z,33.30
2017-09-15T09:33:15.829Z,34.43
2017-09-15T09:35:46.222Z,31.80
2017-09-15T09:38:16.560Z,26.83
2017-09-15T09:40:46.975Z,32.73
2017-09-15T09:43:17.267Z,29.10
2017-09-15T09:45:48.286Z,28.93
2017-09-15T09:48:18.538Z,29.90
2017-09-15T09:50:49.815Z,29.53
2017-09-15T09:53:20.259Z,27.33
2017-09-15T09:55:50.656Z,26.97
2017-09-15T09:58:20.923Z,29.10
2017-09-15T10:00:51.275Z,22.77
2017-09-15T10:03:21.575Z,24.23
2017-09-15T10:05:51.913Z,23.20
2017-09-15T10:08:22.418Z,23.67
2017-09-15T10:10:52.692Z,19.50
2017-09-15T10:13:23.357Z,23.63
2017-09-15T10:15:53.767Z,27.67
2017-09-15T10:18:24.095Z,21.17
2017-09-15T10:20:54.512Z,19.57
2017-09-15T10:23:24.887Z,23.20
2017-09-15T10:25:55.202Z,22.67
2017-09-15T10:28:26.551Z,24.50
2017-09-15T10:30:57.102Z,28.63
2017-09-15T10:33:27.432Z,26.10
2017-09-15T10:35:58.900Z,25.73
2017-09-15T10:38:30.105Z,26.10
2017-09-15T10:41:00.487Z,25.10
2017-09-15T10:43:30.891Z,29.67
2017-09-15T10:46:01.486Z,27.33
2017-09-15T10:48:31.900Z,27.87
2017-09-15T10:51:02.213Z,27.60
2017-09-15T10:53:32.523Z,31.90
2017-09-15T10:56:03.270Z,28.20
2017-09-15T10:58:39.928Z,25.83
2017-09-15T11:01:10.400Z,27.77
2017-09-15T11:03:40.903Z,29.23
2017-09-15T11:06:11.285Z,25.77
2017-09-15T11:08:41.916Z,27.33
2017-09-15T11:11:13.139Z,23.40
2017-09-15T11:13:43.449Z,29.60
2017-09-15T11:16:13.948Z,27.63
2017-09-15T11:18:44.630Z,22.70
2017-09-15T11:21:14.980Z,22.30
2017-09-15T11:23:45.259Z,23.10
2017-09-15T11:26:15.616Z,23.87
2017-09-15T11:28:45.942Z,24.33
2017-09-15T11:31:17.054Z,24.07
2017-09-15T11:33:47.750Z,19.17
2017-09-15T11:36:18.132Z,26.80
2017-09-15T11:38:48.568Z,18.07
2017-09-15T11:41:19.725Z,16.43
2017-09-15T11:43:51.034Z,14.87
2017-09-15T11:46:21.842Z,16.10
2017-09-15T11:48:52.190Z,14.10
2017-09-15T11:51:22.555Z,14.53
2017-09-15T11:53:52.911Z,24.50
2017-09-15T11:56:24.673Z,18.90
2017-09-15T11:58:56.734Z,17.13
2017-09-15T12:01:28.334Z,20.70
2017-09-15T12:03:59.341Z,16.53
2017-09-15T12:06:29.639Z,18.30
2017-09-15T12:08:59.831Z,16.03
2017-09-15T12:11:30.969Z,17.47
2017-09-15T12:14:01.878Z,22.93
2017-09-15T12:16:32.522Z,15.80
2017-09-15T12:19:03.124Z,18.03
2017-09-15T12:21:34.690Z,18.20
2017-09-15T12:24:06.147Z,16.67
2017-09-15T12:26:36.456Z,14.40
2017-09-15T12:29:06.684Z,15.67
2017-09-15T12:31:37.072Z,17.70
2017-09-15T12:34:07.787Z,16.27
2017-09-15T12:36:38.195Z,14.93
2017-09-15T12:39:09.398Z,15.20
2017-09-15T12:41:39.943Z,14.60
2017-09-15T12:44:10.491Z,15.90
2017-09-15T12:46:40.904Z,16.37
2017-09-15T12:49:11.158Z,15.83
2017-09-15T12:51:42.408Z,15.00
2017-09-15T12:54:12.654Z,16.07
2017-09-15T12:56:43.332Z,17.10
2017-09-15T12:59:13.972Z,15.20
2017-09-15T13:01:44.458Z,14.60
2017-09-15T13:04:14.923Z,10.93
2017-09-15T13:06:45.798Z,7.57
2017-09-15T13:09:16.414Z,4.83
2017-09-15T13:11:47.481Z,5.33
2017-09-15T13:14:18.031Z,4.43
2017-09-15T13:16:48.348Z,3.70
2017-09-15T13:19:19.021Z,8.47
2017-09-15T13:21:50.644Z,6.50
2017-09-15T13:24:21.396Z,5.20
2017-09-15T13:26:51.967Z,7.43
2017-09-15T13:29:22.411Z,7.80
2017-09-15T13:31:52.770Z,9.07
2017-09-15T13:34:23.442Z,7.27
2017-09-15T13:36:54.749Z,10.17
2017-09-15T13:39:25.215Z,8.27
2017-09-15T13:41:58.390Z,10.63
2017-09-15T13:44:30.657Z,8.53
2017-09-15T13:47:01.065Z,8.50
2017-09-15T13:49:31.485Z,8.87
2017-09-15T13:52:01.804Z,8.70
2017-09-15T13:54:32.206Z,8.10
2017-09-15T13:57:02.595Z,8.40
2017-09-15T13:59:33.208Z,10.17
2017-09-15T14:02:03.601Z,8.90
2017-09-15T14:04:34.066Z,9.43
2017-09-15T14:07:05.335Z,11.97
2017-09-15T14:09:36.499Z,7.77
2017-09-15T14:12:06.953Z,9.87
2017-09-15T14:14:37.878Z,8.53
2017-09-15T14:17:08.653Z,8.90
2017-09-15T14:19:38.951Z,10.43
2017-09-15T14:22:09.386Z,14.30
2017-09-15T14:24:39.883Z,8.73
2017-09-15T14:27:10.481Z,12.57
2017-09-15T14:29:42.686Z,8.00
2017-09-15T14:32:13.319Z,10.20
2017-09-15T14:34:43.773Z,10.60
2017-09-15T14:37:14.193Z,7.10
2017-09-15T14:39:44.991Z,7.90
2017-09-15T14:42:15.452Z,7.70
2017-09-15T14:44:46.094Z,6.60
2017-09-15T14:47:17.554Z,8.23
2017-09-15T14:49:47.985Z,7.10
2017-09-15T14:52:18.408Z,8.13
2017-09-15T14:54:50.547Z,6.90
2017-09-15T14:57:21.080Z,6.27
2017-09-15T14:59:51.431Z,4.63
2017-09-15T15:02:23.221Z,5.93
2017-09-15T15:04:54.537Z,5.80
2017-09-15T15:07:24.943Z,7.83
2017-09-15T15:09:55.294Z,6.47
2017-09-15T15:12:28.075Z,7.10
2017-09-15T15:14:59.146Z,9.90
2017-09-15T15:17:29.940Z,5.97
2017-09-15T15:20:00.455Z,6.47
2017-09-15T15:22:30.853Z,8.83
2017-09-15T15:25:03.202Z,6.70
2017-09-15T15:27:34.555Z,11.23
2017-09-15T15:30:05.154Z,7.77
2017-09-15T15:32:36.810Z,6.83
2017-09-15T15:35:07.116Z,8.97
2017-09-15T15:37:38.853Z,7.40
2017-09-15T15:40:10.513Z,7.67
2017-09-15T15:42:40.985Z,11.27
2017-09-15T15:45:11.459Z,8.30
2017-09-15T15:47:42.330Z,12.20
2017-09-15T15:50:12.772Z,7.17
2017-09-15T15:52:43.090Z,7.80
2017-09-15T15:55:13.377Z,7.73
2017-09-15T15:57:44.228Z,9.83
2017-09-15T16:00:15.031Z,6.80
2017-09-15T16:02:45.487Z,8.33
2017-09-15T16:05:15.739Z,7.20
2017-09-15T16:07:46.508Z,12.50
2017-09-15T16:10:17.905Z,9.77
2017-09-15T16:12:49.614Z,9.53
2017-09-15T16:15:20.189Z,11.20
2017-09-15T16:17:50.983Z,10.53
2017-09-15T16:20:21.363Z,10.13
2017-09-15T16:22:51.666Z,14.93
2017-09-15T16:25:23.059Z,13.87
2017-09-15T16:27:53.466Z,15.03
2017-09-15T16:30:25.264Z,15.10
2017-09-15T16:32:55.690Z,17.40
2017-09-15T16:35:26.212Z,12.43
2017-09-15T16:38:01.745Z,13.40
2017-09-15T16:40:39.737Z,13.20
2017-09-15T16:43:16.646Z,16.00
2017-09-15T16:45:53.421Z,16.03
2017-09-15T16:48:30.555Z,14.13
2017-09-15T16:51:01.682Z,13.43
2017-09-15T16:53:33.117Z,14.13
2017-09-15T16:56:03.867Z,14.63
2017-09-15T16:58:34.252Z,16.43
2017-09-15T17:01:04.842Z,12.93
2017-09-15T17:03:35.236Z,13.43
2017-09-15T17:06:06.464Z,14.73
2017-09-15T17:08:36.813Z,13.73
2017-09-15T17:11:07.268Z,14.40
2017-09-15T17:13:39.472Z,13.53
2017-09-15T17:16:09.943Z,15.10
2017-09-15T17:18:40.430Z,12.10
2017-09-15T17:21:11.387Z,11.17
2017-09-15T17:23:42.942Z,12.90
2017-09-15T17:26:13.370Z,13.83
2017-09-15T17:28:43.824Z,12.53
2017-09-15T17:31:14.554Z,13.37
2017-09-15T17:33:45.560Z,14.63
2017-09-15T17:36:15.948Z,13.80
2017-09-15T17:38:47.116Z,18.20
2017-09-15T17:41:18.193Z,16.87
2017-09-15T17:43:50.104Z,15.93
2017-09-15T17:46:20.644Z,14.53
2017-09-15T17:48:51.444Z,18.13
2017-09-15T17:51:22.413Z,13.63
2017-09-15T17:53:53.247Z,16.07
2017-09-15T17:56:23.839Z,14.97
2017-09-15T17:58:54.426Z,15.50
2017-09-15T18:01:24.813Z,15.43
2017-09-15T18:03:56.136Z,13.67
2017-09-15T18:06:27.816Z,14.27
2017-09-15T18:08:59.779Z,13.27
2017-09-15T18:11:30.159Z,15.47
2017-09-15T18:14:00.465Z,14.70
2017-09-15T18:16:30.871Z,11.27
2017-09-15T18:19:02.064Z,11.70
2017-09-15T18:21:33.784Z,11.30
2017-09-15T18:24:04.138Z,13.50
2017-09-15T18:26:34.535Z,12.00
2017-09-15T18:29:05.118Z,9.27
2017-09-15T18:31:36.021Z,15.87
2017-09-15T18:34:06.379Z,10.40
2017-09-15T18:36:37.775Z,14.40
2017-09-15T18:39:09.875Z,10.13
2017-09-15T18:41:40.462Z,15.57
2017-09-15T18:44:11.255Z,14.43
2017-09-15T18:46:41.860Z,10.43
2017-09-15T18:49:12.776Z,11.70
2017-09-15T18:51:43.836Z,12.37
2017-09-15T18:54:16.347Z,14.87
2017-09-15T18:56:48.137Z,15.10
2017-09-15T18:59:18.653Z,14.50
2017-09-15T19:01:49.320Z,13.07
2017-09-15T19:04:20.093Z,13.70
2017-09-15T19:06:50.662Z,12.37
2017-09-15T19:09:21.047Z,16.30
2017-09-15T19:11:52.340Z,16.73
2017-09-15T19:14:22.694Z,17.30
2017-09-15T19:19:14.787Z,17.23
2017-09-15T19:21:45.980Z,15.67
2017-09-15T19:24:16.926Z,9.90
2017-09-15T19:26:47.755Z,11.80
2017-09-15T19:29:18.111Z,9.47
2017-09-15T19:31:49.514Z,17.40
2017-09-15T19:34:20.067Z,13.33
2017-09-15T19:36:50.924Z,12.27
2017-09-15T19:39:21.709Z,14.33
2017-09-15T19:41:52.599Z,14.83
2017-09-15T19:44:23.220Z,11.57
2017-09-15T19:46:54.718Z,12.70
2017-09-15T19:49:25.672Z,13.20
2017-09-15T19:51:56.449Z,11.63
2017-09-15T19:54:27.542Z,14.43
2017-09-15T19:56:58.111Z,15.30
2017-09-15T19:59:28.713Z,14.10
2017-09-15T20:01:59.647Z,12.73
2017-09-15T20:04:30.549Z,12.10
2017-09-15T20:07:02.203Z,16.47
2017-09-15T20:09:33.366Z,10.43
2017-09-15T20:12:03.869Z,13.57
2017-09-15T20:14:35.357Z,15.07
2017-09-15T20:17:06.487Z,12.17
2017-09-15T20:19:37.086Z,15.30
2017-09-15T20:22:08.035Z,12.80
2017-09-15T20:24:40.752Z,16.57
2017-09-15T20:27:11.944Z,17.87
2017-09-15T20:29:43.147Z,13.23
2017-09-15T20:32:14.014Z,13.37
2017-09-15T20:34:44.664Z,12.57
2017-09-15T20:37:16.325Z,14.03
2017-09-15T20:39:47.504Z,20.00
2017-09-15T20:42:18.799Z,14.70
2017-09-15T20:44:50.091Z,15.30
2017-09-15T20:47:20.725Z,11.70
2017-09-15T20:49:51.105Z,14.13
2017-09-15T20:52:22.252Z,13.47
2017-09-15T20:54:53.479Z,15.00
2017-09-15T20:57:24.322Z,16.87
2017-09-15T20:59:55.680Z,15.70
2017-09-15T21:02:29.447Z,12.70
2017-09-15T21:05:00.704Z,21.47
2017-09-15T21:07:32.028Z,16.27
2017-09-15T21:10:02.816Z,19.40
2017-09-15T21:12:33.593Z,18.23
2017-09-15T21:15:04.686Z,26.27
2017-09-15T21:17:36.192Z,21.30
2017-09-15T21:20:20.158Z,21.80
2017-09-15T21:22:52.473Z,21.53
2017-09-15T21:25:23.658Z,19.53
2017-09-15T21:27:54.642Z,22.13
2017-09-15T21:30:25.732Z,26.60
2017-09-15T21:32:58.234Z,26.93
2017-09-15T21:35:29.724Z,23.80
2017-09-15T21:38:00.765Z,23.67
2017-09-15T21:40:31.629Z,25.40
2017-09-15T21:43:02.565Z,22.90
2017-09-15T21:45:33.587Z,22.70
2017-09-15T21:48:05.466Z,23.47
2017-09-15T21:50:36.555Z,25.33
2017-09-15T21:53:07.732Z,24.23
2017-09-15T21:55:39.644Z,28.80
2017-09-15T21:58:11.235Z,27.93
2017-09-15T22:00:42.797Z,22.87
2017-09-15T22:03:13.536Z,22.27
2017-09-15T22:05:44.891Z,23.63
2017-09-15T22:08:15.784Z,25.80
2017-09-15T22:10:47.701Z,28.00
2017-09-15T22:13:19.458Z,29.87
2017-09-15T22:15:51.132Z,24.13
2017-09-15T22:18:23.189Z,25.70
2017-09-15T22:20:54.605Z,26.50
2017-09-15T22:23:25.518Z,31.60
2017-09-15T22:25:57.075Z,31.50
2017-09-15T22:28:28.838Z,25.80
2017-09-15T22:31:00.431Z,28.90
2017-09-15T22:33:34.452Z,27.20
2017-09-15T22:36:06.388Z,29.77
2017-09-15T22:38:38.043Z,33.77
2017-09-15T22:41:09.575Z,27.83
2017-09-15T22:43:40.349Z,27.20
2017-09-15T22:46:12.703Z,29.13
2017-09-15T22:48:43.941Z,32.20
2017-09-15T22:51:15.181Z,26.90
2017-09-15T22:53:46.171Z,37.00
2017-09-15T22:56:17.501Z,31.87
2017-09-15T22:58:48.570Z,31.47
2017-09-15T23:01:19.759Z,21.97
2017-09-15T23:03:50.919Z,32.17
2017-09-15T23:06:21.958Z,24.43
2017-09-15T23:08:53.996Z,35.80
2017-09-15T23:11:26.224Z,27.13
2017-09-15T23:13:56.760Z,25.30
2017-09-15T23:16:27.145Z,26.27
2017-09-15T23:18:58.033Z,29.30
2017-09-15T23:21:29.444Z,24.90
2017-09-15T23:24:07.578Z,30.73
2017-09-15T23:26:42.231Z,26.73
2017-09-15T23:29:13.217Z,27.93
2017-09-15T23:31:44.239Z,28.27
2017-09-15T23:34:15.504Z,26.73
2017-09-15T23:36:46.385Z,27.60
2017-09-15T23:39:18.471Z,29.13
2017-09-15T23:41:49.595Z,31.10
2017-09-15T23:44:20.354Z,28.40
2017-09-15T23:46:51.474Z,32.50
2017-09-15T23:49:22.348Z,36.70
2017-09-15T23:51:53.275Z,24.40
2017-09-15T23:54:26.087Z,29.80
2017-09-15T23:56:56.604Z,32.10
2017-09-15T23:59:28.055Z,31.67
